Time;durP1;ratioP1;P1;durP2;ratioP2;P2;SDS_P1;SDS_P2;PMS_P1;PMS_P2;Temp;Humidity;BMP_temperature;BMP_pressure;BME280_temperature;BME280_humidity;BME280_pressure;Samples;Min_cycle;Max_cycle;Signal;HPM_P1;HPM_P2
2023/05/27 00:02:03;;;;;;;5.65;0.50;;;9.00;99.90;;;;;;5038445;28;20025;-78
2023/05/27 00:04:28;;;;;;;4.03;0.57;;;9.00;99.90;;;;;;5028553;28;20477;-77
2023/05/27 00:06:54;;;;;;;5.68;0.60;;;8.90;99.90;;;;;;5022025;28;20036;-76
2023/05/27 00:09:20;;;;;;;6.03;0.60;;;8.90;99.90;;;;;;5029204;28;20021;-77
2023/05/27 00:11:46;;;;;;;2.58;0.50;;;8.90;99.90;;;;;;5025993;28;20444;-78
2023/05/27 00:14:11;;;;;;;4.22;0.70;;;8.80;99.90;;;;;;5028698;28;20044;-79
2023/05/27 00:16:37;;;;;;;4.32;0.60;;;8.80;99.90;;;;;;5010642;28;20056;-78
2023/05/27 00:19:03;;;;;;;4.70;0.63;;;8.80;99.90;;;;;;5043901;28;20048;-76
2023/05/27 00:21:29;;;;;;;3.38;0.50;;;8.80;99.90;;;;;;5035620;28;20048;-78
2023/05/27 00:23:57;;;;;;;5.03;0.60;;;8.70;99.90;;;;;;5041906;28;20029;-78
2023/05/27 00:26:23;;;;;;;7.47;0.80;;;8.70;99.90;;;;;;5013758;28;20025;-77
2023/05/27 00:28:51;;;;;;;4.75;0.47;;;8.70;99.90;;;;;;5042014;28;20100;-76
2023/05/27 00:31:17;;;;;;;3.55;0.50;;;8.60;99.90;;;;;;5043762;28;20120;-78
2023/05/27 00:33:43;;;;;;;3.65;0.60;;;8.70;99.90;;;;;;5029096;28;20036;-79
2023/05/27 00:36:10;;;;;;;5.32;0.70;;;8.60;99.90;;;;;;5041876;28;20053;-78
2023/05/27 00:38:36;;;;;;;1.60;0.40;;;8.50;99.90;;;;;;5029203;28;20023;-80
2023/05/27 00:41:03;;;;;;;3.60;0.70;;;8.50;99.90;;;;;;5030348;28;20036;-79
2023/05/27 00:43:32;;;;;;;4.05;0.60;;;8.50;99.90;;;;;;5012774;28;20060;-79
2023/05/27 00:45:58;;;;;;;3.55;0.70;;;8.40;99.90;;;;;;5035890;28;20039;-80
2023/05/27 00:48:25;;;;;;;2.85;0.55;;;8.40;99.90;;;;;;5027610;28;20021;-79
2023/05/27 00:50:51;;;;;;;4.38;0.80;;;8.40;99.90;;;;;;5043396;28;20378;-77
2023/05/27 00:53:17;;;;;;;6.25;0.60;;;8.40;99.90;;;;;;5029035;28;20029;-79
2023/05/27 00:55:43;;;;;;;4.80;0.50;;;8.30;99.90;;;;;;5044554;28;20055;-77
2023/05/27 00:58:09;;;;;;;4.85;0.52;;;8.40;99.90;;;;;;5033159;28;20120;-78
2023/05/27 01:00:38;;;;;;;4.55;0.85;;;8.40;99.90;;;;;;5046369;28;20447;-79
2023/05/27 01:03:06;;;;;;;5.40;0.60;;;8.40;99.90;;;;;;5029455;28;20021;-79
2023/05/27 01:05:33;;;;;;;5.15;1.23;;;8.40;99.90;;;;;;5032289;28;20039;-79
2023/05/27 01:08:26;;;;;;;4.97;0.60;;;8.40;99.90;;;;;;5032576;28;20032;-80
2023/05/27 01:10:54;;;;;;;5.35;0.60;;;8.30;99.90;;;;;;5045901;28;20029;-78
2023/05/27 01:13:30;;;;;;;6.82;0.70;;;8.30;99.90;;;;;;5032345;28;20029;-77
2023/05/27 01:15:59;;;;;;;3.13;0.57;;;8.20;99.90;;;;;;5039348;28;20071;-79
2023/05/27 01:18:31;;;;;;;4.35;0.52;;;8.20;99.90;;;;;;5046444;28;20377;-78
2023/05/27 01:21:05;;;;;;;6.32;0.68;;;8.10;99.90;;;;;;5044355;28;20413;-76
2023/05/27 01:23:31;;;;;;;3.78;0.60;;;8.10;99.90;;;;;;5045175;28;20029;-79
2023/05/27 01:25:57;;;;;;;2.38;0.40;;;8.10;99.90;;;;;;5021068;28;20036;-78
2023/05/27 01:28:22;;;;;;;2.53;0.50;;;8.10;99.90;;;;;;5045779;28;20021;-77
2023/05/27 01:30:54;;;;;;;3.95;0.70;;;8.20;99.90;;;;;;5015159;28;20029;-76
2023/05/27 01:33:23;;;;;;;2.58;0.40;;;8.20;99.90;;;;;;5039978;28;20029;-79
2023/05/27 01:35:52;;;;;;;;;;;8.10;99.90;;;;;;5020165;28;20116;-77
2023/05/27 01:38:20;;;;;;;5.05;0.65;;;8.00;99.90;;;;;;5030868;28;19955;-75
2023/05/27 01:40:49;;;;;;;2.10;0.50;;;8.00;99.90;;;;;;5029868;28;20083;-76
2023/05/27 01:43:15;;;;;;;3.25;0.50;;;8.00;99.90;;;;;;5016177;28;20041;-76
2023/05/27 01:45:42;;;;;;;4.25;0.50;;;8.00;99.90;;;;;;5044386;28;20032;-75
2023/05/27 01:48:09;;;;;;;3.85;0.65;;;8.00;99.90;;;;;;5021339;28;20029;-79
2023/05/27 01:50:35;;;;;;;3.35;0.63;;;8.00;99.90;;;;;;5034942;28;20029;-79
2023/05/27 01:53:03;;;;;;;3.28;0.50;;;8.00;99.90;;;;;;5048051;28;20021;-76
2023/05/27 01:55:30;;;;;;;2.78;0.45;;;7.90;99.90;;;;;;5020893;28;20536;-76
2023/05/27 01:57:57;;;;;;;5.50;0.60;;;7.80;99.90;;;;;;5032074;28;20477;-78
2023/05/27 02:00:24;;;;;;;4.88;0.60;;;7.90;99.90;;;;;;5030988;28;20032;-79
2023/05/27 02:02:50;;;;;;;3.38;0.50;;;7.80;99.90;;;;;;5035980;28;20764;-76
2023/05/27 02:05:17;;;;;;;3.30;0.50;;;7.80;99.90;;;;;;5031100;28;20025;-79
2023/05/27 02:07:43;;;;;;;3.00;0.75;;;7.80;99.90;;;;;;5030381;28;20469;-79
2023/05/27 02:10:10;;;;;;;3.65;0.65;;;7.80;99.90;;;;;;5030343;28;20032;-80
2023/05/27 02:12:35;;;;;;;4.75;0.50;;;7.70;99.90;;;;;;5014876;28;20122;-80
2023/05/27 02:15:03;;;;;;;5.90;0.50;;;7.70;99.90;;;;;;5032224;28;20033;-80
2023/05/27 02:17:28;;;;;;;4.45;0.50;;;7.60;99.90;;;;;;5028617;28;20020;-80
2023/05/27 02:19:55;;;;;;;3.78;0.47;;;7.60;99.90;;;;;;5030910;28;20160;-80
2023/05/27 02:22:21;;;;;;;2.72;0.47;;;7.60;99.90;;;;;;5028966;28;20469;-75
2023/05/27 02:24:47;;;;;;;3.20;0.43;;;7.50;99.90;;;;;;5028889;28;20131;-79
2023/05/27 02:27:14;;;;;;;6.90;1.15;;;7.50;99.90;;;;;;5026850;28;20098;-79
2023/05/27 02:29:40;;;;;;;5.10;0.65;;;7.50;99.90;;;;;;5045593;28;20036;-80
2023/05/27 02:32:06;;;;;;;4.95;1.00;;;7.50;99.90;;;;;;5028529;28;20350;-80
2023/05/27 02:34:36;;;;;;;5.88;0.60;;;7.50;99.90;;;;;;5025894;28;20468;-78
2023/05/27 02:37:04;;;;;;;5.57;0.70;;;7.50;99.90;;;;;;5026690;28;20056;-76
2023/05/27 02:39:30;;;;;;;5.65;0.60;;;7.40;99.90;;;;;;5044229;28;20033;-75
2023/05/27 02:41:56;;;;;;;5.40;0.90;;;7.40;99.90;;;;;;5030260;28;20665;-79
2023/05/27 02:44:23;;;;;;;4.47;0.80;;;7.40;99.90;;;;;;5030758;28;20136;-80
2023/05/27 02:46:48;;;;;;;4.28;0.55;;;7.40;99.90;;;;;;5026420;28;20155;-76
2023/05/27 02:49:14;;;;;;;4.05;0.45;;;7.40;99.90;;;;;;5013769;28;20040;-76
2023/05/27 02:51:40;;;;;;;4.40;0.50;;;7.30;99.90;;;;;;5044326;28;20029;-76
2023/05/27 02:54:06;;;;;;;3.15;0.50;;;7.30;99.90;;;;;;5010968;28;20827;-79
2023/05/27 02:56:31;;;;;;;3.72;0.50;;;7.20;99.90;;;;;;5043657;28;20087;-77
2023/05/27 02:58:57;;;;;;;4.63;0.70;;;7.20;99.90;;;;;;5014878;28;20082;-75
2023/05/27 03:01:23;;;;;;;5.13;0.60;;;7.20;99.90;;;;;;5029147;28;20128;-78
2023/05/27 03:03:49;;;;;;;1.83;0.40;;;7.10;99.90;;;;;;5023066;28;20025;-78
2023/05/27 03:06:15;;;;;;;3.90;0.50;;;7.10;99.90;;;;;;5036611;28;20382;-76
2023/05/27 03:08:41;;;;;;;3.58;0.40;;;7.00;99.90;;;;;;5009682;28;20017;-77
2023/05/27 03:11:07;;;;;;;3.97;0.60;;;7.00;99.90;;;;;;5013275;28;20082;-80
2023/05/27 03:13:32;;;;;;;2.38;0.45;;;7.00;99.90;;;;;;5029661;28;20028;-79
2023/05/27 03:15:58;;;;;;;4.50;0.55;;;7.00;99.90;;;;;;5021496;28;20071;-76
2023/05/27 03:18:25;;;;;;;6.20;0.70;;;7.00;99.90;;;;;;5010879;28;20048;-79
2023/05/27 03:20:55;;;;;;;2.95;0.45;;;6.90;99.90;;;;;;5033852;28;20033;-79
2023/05/27 03:23:21;;;;;;;5.82;0.68;;;6.90;99.90;;;;;;5026366;28;20382;-78
2023/05/27 03:25:48;;;;;;;3.90;0.70;;;7.00;99.90;;;;;;5036494;28;20056;-76
2023/05/27 03:28:15;;;;;;;3.75;0.77;;;6.90;99.90;;;;;;5013691;28;20544;-78
2023/05/27 03:30:43;;;;;;;7.15;0.70;;;7.00;99.90;;;;;;5035168;28;20033;-79
2023/05/27 03:33:11;;;;;;;3.20;0.52;;;6.90;99.90;;;;;;5014155;28;20473;-76
2023/05/27 03:35:37;;;;;;;4.25;0.60;;;7.00;99.90;;;;;;5026368;28;20024;-79
2023/05/27 03:38:04;;;;;;;3.60;0.57;;;6.90;99.90;;;;;;5019917;28;20025;-79
2023/05/27 03:40:30;;;;;;;2.83;0.60;;;6.90;99.90;;;;;;5010433;28;20033;-77
2023/05/27 03:42:56;;;;;;;3.80;0.88;;;6.90;99.90;;;;;;5030098;28;20036;-77
2023/05/27 03:45:23;;;;;;;5.07;0.55;;;6.80;99.90;;;;;;5043800;28;20086;-79
2023/05/27 03:47:49;;;;;;;6.55;0.85;;;6.80;99.90;;;;;;5012947;28;20036;-80
2023/05/27 03:50:16;;;;;;;5.63;0.88;;;6.80;99.90;;;;;;5018661;28;20082;-77
2023/05/27 03:52:42;;;;;;;3.15;0.68;;;6.90;99.90;;;;;;5042001;28;20105;-80
2023/05/27 03:55:08;;;;;;;3.78;0.70;;;6.90;99.90;;;;;;5029255;28;20037;-80
2023/05/27 03:57:34;;;;;;;3.92;0.65;;;6.90;99.90;;;;;;5011745;28;20531;-78
2023/05/27 04:00:07;;;;;;;4.45;0.60;;;6.90;99.90;;;;;;5011486;28;20061;-77
2023/05/27 04:02:36;;;;;;;2.25;0.80;;;6.90;99.90;;;;;;5034805;28;20040;-79
2023/05/27 04:05:01;;;;;;;3.92;0.80;;;7.00;99.90;;;;;;5027309;28;20025;-79
2023/05/27 04:07:28;;;;;;;3.45;0.70;;;7.00;99.90;;;;;;5042128;28;20048;-76
2023/05/27 04:09:54;;;;;;;4.75;0.65;;;7.00;99.90;;;;;;5024056;28;20445;-77
2023/05/27 04:12:21;;;;;;;4.20;0.80;;;7.00;99.90;;;;;;5020403;28;20028;-79
2023/05/27 04:14:49;;;;;;;2.58;0.60;;;7.00;99.90;;;;;;5021367;28;20032;-76
2023/05/27 04:17:15;;;;;;;3.72;0.70;;;7.00;99.90;;;;;;5028566;28;20036;-75
2023/05/27 04:19:41;;;;;;;2.63;0.60;;;7.00;99.90;;;;;;5026487;28;20033;-79
2023/05/27 04:22:07;;;;;;;5.38;0.85;;;7.10;99.90;;;;;;5027422;28;20041;-79
2023/05/27 04:24:33;;;;;;;4.70;0.70;;;7.10;99.90;;;;;;5010501;28;20376;-76
2023/05/27 04:26:59;;;;;;;5.47;0.90;;;7.20;99.90;;;;;;5041843;28;20030;-76
2023/05/27 04:29:25;;;;;;;2.75;0.60;;;7.20;99.90;;;;;;5011658;28;20088;-79
2023/05/27 04:31:51;;;;;;;7.22;1.40;;;7.30;99.90;;;;;;5032750;28;20033;-79
2023/05/27 04:34:20;;;;;;;6.57;0.60;;;7.30;99.90;;;;;;5013499;28;20025;-76
2023/05/27 04:36:49;;;;;;;5.05;0.68;;;7.40;99.90;;;;;;5026924;28;20025;-76
2023/05/27 04:39:18;;;;;;;7.05;0.93;;;7.50;99.90;;;;;;5016245;28;20025;-79
2023/05/27 04:41:45;;;;;;;6.00;0.98;;;7.50;99.90;;;;;;5015079;28;20025;-76
2023/05/27 04:44:17;;;;;;;6.07;0.85;;;7.60;99.90;;;;;;5041078;28;20107;-77
2023/05/27 04:46:44;;;;;;;8.73;1.00;;;7.70;99.90;;;;;;5027788;28;20547;-77
2023/05/27 04:49:10;;;;;;;5.45;1.05;;;7.80;99.90;;;;;;5028703;28;20021;-78
2023/05/27 04:51:37;;;;;;;5.82;0.60;;;7.90;99.90;;;;;;5029517;28;20032;-77
2023/05/27 04:54:03;;;;;;;5.88;0.80;;;8.00;99.90;;;;;;5032749;28;20029;-79
2023/05/27 04:56:29;;;;;;;6.47;0.80;;;8.20;99.90;;;;;;5040034;28;20033;-78
2023/05/27 04:58:55;;;;;;;4.85;0.73;;;8.40;99.90;;;;;;5032167;28;20122;-76
2023/05/27 05:01:29;;;;;;;6.32;0.95;;;8.50;99.90;;;;;;5020474;28;20041;-76
2023/05/27 05:04:12;;;;;;;3.90;0.70;;;8.50;99.90;;;;;;5027907;28;20029;-79
2023/05/27 05:06:42;;;;;;;;;;;8.60;99.90;;;;;;5022517;28;20028;-80
2023/05/27 05:09:09;;;;;;;3.65;0.70;;;8.70;99.90;;;;;;5015376;28;20289;-79
2023/05/27 05:11:35;;;;;;;6.22;0.68;;;8.80;99.90;;;;;;5039059;28;20033;-79
2023/05/27 05:14:01;;;;;;;4.97;0.75;;;8.80;99.90;;;;;;5025461;28;20189;-79
2023/05/27 05:16:26;;;;;;;5.72;0.60;;;8.90;99.90;;;;;;5031441;28;20037;-77
2023/05/27 05:18:52;;;;;;;6.03;1.08;;;9.00;99.90;;;;;;5014527;28;20040;-79
2023/05/27 05:21:20;;;;;;;6.50;0.80;;;9.10;99.90;;;;;;5016505;28;20049;-80
2023/05/27 05:23:46;;;;;;;7.05;0.82;;;9.10;99.90;;;;;;5027265;28;20029;-80
2023/05/27 05:26:12;;;;;;;5.55;0.85;;;9.20;99.90;;;;;;5030069;28;20025;-79
2023/05/27 05:28:40;;;;;;;5.22;1.25;;;9.30;99.90;;;;;;5031930;28;20051;-80
2023/05/27 05:31:07;;;;;;;5.63;0.85;;;9.30;99.90;;;;;;5022814;28;20124;-80
2023/05/27 05:33:33;;;;;;;5.97;0.70;;;9.40;99.90;;;;;;5031283;28;20545;-78
2023/05/27 05:36:01;;;;;;;8.25;2.13;;;9.50;99.90;;;;;;5030631;28;20056;-80
2023/05/27 05:38:35;;;;;;;7.68;1.10;;;9.40;99.90;;;;;;5015618;28;20021;-79
2023/05/27 05:41:00;;;;;;;6.13;0.95;;;9.50;99.90;;;;;;5026904;28;20037;-79
2023/05/27 05:43:26;;;;;;;6.95;0.90;;;9.70;99.90;;;;;;5014490;28;20037;-80
2023/05/27 05:45:52;;;;;;;5.40;0.82;;;9.80;99.90;;;;;;5045994;28;20029;-79
2023/05/27 05:48:19;;;;;;;6.90;0.93;;;10.00;99.90;;;;;;5038069;28;20175;-80
2023/05/27 05:50:45;;;;;;;7.20;1.40;;;10.10;99.90;;;;;;5030968;28;20116;-79
2023/05/27 05:53:11;;;;;;;8.40;0.85;;;10.20;99.90;;;;;;5014922;28;20017;-80
2023/05/27 05:55:37;;;;;;;6.82;0.88;;;10.40;99.90;;;;;;5031373;28;20033;-80
2023/05/27 05:58:03;;;;;;;8.05;2.13;;;10.60;99.90;;;;;;5048290;28;20518;-81
2023/05/27 06:00:30;;;;;;;5.63;1.20;;;10.60;99.90;;;;;;5011481;28;20444;-81
2023/05/27 06:03:12;;;;;;;7.80;1.45;;;10.70;99.90;;;;;;5030496;28;20117;-81
2023/05/27 06:05:50;;;;;;;5.28;0.88;;;10.80;99.90;;;;;;5020635;28;20032;-80
2023/05/27 06:08:16;;;;;;;9.23;1.45;;;11.10;99.90;;;;;;5046006;28;20395;-79
2023/05/27 06:10:49;;;;;;;7.97;1.10;;;11.10;99.90;;;;;;5029729;28;20024;-80
2023/05/27 06:13:15;;;;;;;7.82;1.20;;;11.30;99.90;;;;;;5013693;28;20044;-79
2023/05/27 06:15:41;;;;;;;11.32;1.60;;;11.50;99.90;;;;;;5014035;28;20082;-80
2023/05/27 06:18:09;;;;;;;5.00;0.60;;;11.70;99.90;;;;;;5015086;28;20520;-79
2023/05/27 06:20:35;;;;;;;6.72;1.10;;;11.90;99.90;;;;;;5027522;28;20029;-79
2023/05/27 06:23:01;;;;;;;10.80;1.35;;;11.90;99.90;;;;;;5014668;28;20481;-80
2023/05/27 06:25:27;;;;;;;7.68;1.40;;;12.00;99.90;;;;;;5039931;28;20036;-76
2023/05/27 06:27:55;;;;;;;6.20;1.30;;;12.10;99.90;;;;;;5028792;28;20140;-79
2023/05/27 06:30:21;;;;;;;4.25;0.98;;;12.20;99.90;;;;;;5046509;28;20036;-78
2023/05/27 06:32:48;;;;;;;6.10;1.20;;;12.40;99.90;;;;;;5010492;28;20075;-76
2023/05/27 06:35:14;;;;;;;5.70;1.45;;;12.40;99.90;;;;;;5030527;28;20025;-78
2023/05/27 06:37:40;;;;;;;6.93;1.08;;;12.50;99.90;;;;;;5044417;28;20029;-78
2023/05/27 06:40:06;;;;;;;6.35;0.93;;;12.70;99.90;;;;;;5029630;28;20637;-80
2023/05/27 06:42:33;;;;;;;8.30;0.95;;;12.90;99.90;;;;;;5030555;28;20040;-78
2023/05/27 06:45:28;;;;;;;5.10;0.93;;;13.10;99.90;;;;;;4996840;28;20033;-79
2023/05/27 06:48:05;;;;;;;5.47;0.90;;;13.30;99.90;;;;;;5016130;28;20111;-77
2023/05/27 06:50:31;;;;;;;5.85;1.13;;;13.50;99.90;;;;;;5013482;28;20025;-78
2023/05/27 06:52:57;;;;;;;6.25;0.70;;;13.60;99.90;;;;;;5017894;28;20555;-79
2023/05/27 06:55:45;;;;;;;4.65;0.65;;;13.70;99.90;;;;;;5023718;28;20040;-80
2023/05/27 06:58:34;;;;;;;3.60;0.75;;;13.80;99.90;;;;;;5029332;28;20037;-78
2023/05/27 07:01:05;;;;;;;11.82;1.52;;;13.90;99.90;;;;;;5020824;28;20025;-79
2023/05/27 07:03:37;;;;;;;5.82;0.90;;;13.70;99.90;;;;;;5028674;28;20037;-81
2023/05/27 07:06:05;;;;;;;5.97;0.80;;;13.90;99.90;;;;;;5022525;28;20098;-78
2023/05/27 07:08:37;;;;;;;7.00;0.88;;;14.20;99.90;;;;;;5043198;28;20086;-80
2023/05/27 07:11:13;;;;;;;4.30;0.63;;;14.30;99.90;;;;;;5028783;28;20427;-79
2023/05/27 07:13:39;;;;;;;7.38;1.00;;;14.50;99.90;;;;;;5024574;28;20127;-80
2023/05/27 07:16:05;;;;;;;5.38;1.02;;;14.60;99.90;;;;;;5029757;28;20037;-80
2023/05/27 07:18:31;;;;;;;9.00;1.48;;;14.50;99.90;;;;;;5022150;28;20036;-80
2023/05/27 07:20:59;;;;;;;4.95;0.70;;;14.70;99.90;;;;;;5012944;28;20040;-80
2023/05/27 07:23:25;;;;;;;5.15;1.10;;;14.80;99.90;;;;;;5037746;28;20017;-79
2023/05/27 07:26:01;;;;;;;6.53;0.70;;;15.00;99.90;;;;;;5030167;28;20033;-80
2023/05/27 07:28:27;;;;;;;6.82;1.08;;;15.20;99.90;;;;;;5032580;28;20543;-77
2023/05/27 07:31:02;;;;;;;8.40;1.10;;;15.40;99.90;;;;;;5030448;28;20044;-80
2023/05/27 07:33:32;;;;;;;3.53;0.88;;;15.20;99.90;;;;;;5042012;28;20041;-79
2023/05/27 07:35:59;;;;;;;4.20;0.73;;;15.50;99.90;;;;;;5035960;28;20173;-80
2023/05/27 07:38:24;;;;;;;6.03;0.95;;;15.70;99.90;;;;;;5012887;28;20104;-80
2023/05/27 07:40:50;;;;;;;6.07;1.13;;;15.80;99.90;;;;;;5028530;28;20068;-77
2023/05/27 07:43:16;;;;;;;6.20;1.05;;;15.70;99.90;;;;;;5035499;28;20045;-80
2023/05/27 07:45:42;;;;;;;4.63;0.73;;;16.00;99.90;;;;;;5018919;28;20041;-78
2023/05/27 07:48:07;;;;;;;5.05;0.70;;;16.20;99.90;;;;;;5028614;28;20037;-80
2023/05/27 07:50:33;;;;;;;9.10;1.45;;;16.10;99.90;;;;;;5027619;28;20029;-80
2023/05/27 07:53:11;;;;;;;5.18;0.90;;;16.20;99.90;;;;;;5026457;28;20025;-79
2023/05/27 07:55:39;;;;;;;5.55;0.93;;;16.40;99.90;;;;;;5019957;28;20220;-80
2023/05/27 07:58:05;;;;;;;6.55;1.13;;;16.60;99.90;;;;;;5027828;28;20178;-80
2023/05/27 08:00:43;;;;;;;4.90;0.95;;;16.40;99.90;;;;;;5014539;28;20041;-80
2023/05/27 08:03:09;;;;;;;7.53;1.20;;;16.70;99.90;;;;;;5029084;28;20025;-78
2023/05/27 08:05:57;;;;;;;6.95;0.93;;;16.60;99.90;;;;;;5046171;28;20489;-79
2023/05/27 08:08:49;;;;;;;7.18;1.25;;;16.80;99.90;;;;;;5044104;28;20028;-78
2023/05/27 08:11:35;;;;;;;5.35;0.80;;;16.70;99.90;;;;;;5038247;28;20037;-77
2023/05/27 08:14:12;;;;;;;6.72;1.58;;;17.00;99.90;;;;;;5018534;28;20028;-78
2023/05/27 08:17:07;;;;;;;5.90;1.10;;;16.80;99.90;;;;;;5006762;28;20066;-80
2023/05/27 08:19:50;;;;;;;8.68;1.08;;;16.80;99.90;;;;;;4976382;28;20048;-78
2023/05/27 08:22:32;;;;;;;4.93;1.10;;;16.80;99.90;;;;;;5007139;28;20057;-81
2023/05/27 08:24:58;;;;;;;8.18;1.73;;;17.40;99.90;;;;;;5006873;28;20116;-78
2023/05/27 08:27:44;;;;;;;6.43;1.17;;;17.30;99.90;;;;;;4990249;28;20108;-80
2023/05/27 08:30:15;;;;;;;5.57;1.23;;;17.30;99.90;;;;;;5006924;28;20037;-79
2023/05/27 08:32:54;;;;;;;6.78;1.27;;;17.60;99.90;;;;;;5004599;28;20023;-80
2023/05/27 08:35:21;;;;;;;6.82;0.90;;;17.40;99.90;;;;;;5006363;28;20040;-80
2023/05/27 08:37:46;;;;;;;6.30;1.40;;;17.70;99.90;;;;;;4991147;28;20030;-80
2023/05/27 08:40:15;;;;;;;9.50;1.58;;;17.40;99.90;;;;;;4990152;28;20518;-80
2023/05/27 08:42:46;;;;;;;6.03;1.20;;;17.70;99.90;;;;;;4991972;28;20018;-81
2023/05/27 08:45:13;;;;;;;6.43;1.75;;;18.10;99.90;;;;;;4991932;28;20523;-80
2023/05/27 08:47:39;;;;;;;4.68;1.02;;;17.80;99.90;;;;;;5004043;28;20033;-80
2023/05/27 08:50:08;;;;;;;2.60;0.80;;;18.30;99.90;;;;;;4990950;28;20034;-80
2023/05/27 08:52:47;;;;;;;6.72;0.90;;;18.60;99.90;;;;;;5008051;28;20018;-80
2023/05/27 08:55:19;;;;;;;;;;;18.50;99.90;;;;;;5013363;28;20025;-80
2023/05/27 08:57:50;;;;;;;4.25;0.80;;;18.30;99.90;;;;;;5016101;28;19913;-81
2023/05/27 09:00:17;;;;;;;11.18;1.50;;;18.40;99.90;;;;;;5020030;28;20040;-79
2023/05/27 09:02:43;;;;;;;6.85;1.77;;;18.10;99.90;;;;;;5029603;28;20025;-80
2023/05/27 09:05:13;;;;;;;4.53;1.10;;;18.30;99.90;;;;;;5030747;28;20026;-80
2023/05/27 09:07:39;;;;;;;4.07;1.05;;;18.50;99.90;;;;;;5042807;28;20030;-80
2023/05/27 09:10:08;;;;;;;6.25;1.27;;;18.80;99.90;;;;;;5022891;28;20139;-80
2023/05/27 09:12:35;;;;;;;6.75;1.02;;;19.00;99.90;;;;;;5031724;28;20025;-80
2023/05/27 09:15:04;;;;;;;5.93;1.13;;;19.20;99.90;;;;;;5041461;28;20097;-80
2023/05/27 09:17:30;;;;;;;5.35;0.90;;;19.40;99.90;;;;;;5046795;28;20021;-80
2023/05/27 09:19:56;;;;;;;5.57;1.27;;;19.30;99.90;;;;;;5041059;28;20076;-80
2023/05/27 09:22:30;;;;;;;7.03;1.50;;;19.10;99.90;;;;;;5014276;28;20053;-79
2023/05/27 09:24:56;;;;;;;7.47;1.60;;;19.40;99.90;;;;;;5045125;28;20472;-80
2023/05/27 09:27:30;;;;;;;7.35;1.52;;;19.10;99.90;;;;;;5045881;28;20029;-81
2023/05/27 09:29:57;;;;;;;5.47;1.00;;;19.40;99.90;;;;;;5030073;28;20155;-80
2023/05/27 09:32:33;;;;;;;6.07;1.38;;;19.40;99.90;;;;;;5044570;28;20037;-79
2023/05/27 09:35:00;;;;;;;7.78;0.98;;;19.70;99.90;;;;;;5045750;28;20033;-81
2023/05/27 09:37:34;;;;;;;4.07;0.70;;;19.80;99.90;;;;;;5013479;28;20029;-79
2023/05/27 09:40:10;;;;;;;7.65;1.05;;;19.70;99.90;;;;;;5028877;28;20052;-79
2023/05/27 09:42:43;;;;;;;4.35;1.00;;;20.20;99.90;;;;;;5028448;28;20033;-80
2023/05/27 09:45:20;;;;;;;6.05;1.02;;;20.00;99.90;;;;;;5025615;28;20041;-79
2023/05/27 09:47:52;;;;;;;4.55;1.02;;;20.50;99.90;;;;;;5032111;28;20053;-79
2023/05/27 09:50:20;;;;;;;6.03;1.02;;;20.40;99.90;;;;;;5043764;28;20025;-79
2023/05/27 09:52:47;;;;;;;4.72;0.73;;;20.20;99.90;;;;;;5042981;28;20029;-79
2023/05/27 09:55:13;;;;;;;4.18;0.88;;;20.00;99.90;;;;;;5030408;28;20025;-80
2023/05/27 09:57:40;;;;;;;4.70;0.90;;;19.80;99.90;;;;;;5046314;28;20087;-79
2023/05/27 10:00:17;;;;;;;3.53;1.00;;;20.00;99.90;;;;;;5044836;28;20481;-78
2023/05/27 10:02:47;;;;;;;5.13;1.00;;;20.00;99.90;;;;;;5043595;28;20033;-80
2023/05/27 10:05:14;;;;;;;4.07;1.17;;;20.10;99.90;;;;;;5025128;28;20059;-81
2023/05/27 10:07:45;;;;;;;8.43;1.40;;;20.00;99.90;;;;;;5026860;28;20017;-80
2023/05/27 10:10:12;;;;;;;7.32;1.48;;;19.90;99.90;;;;;;5028784;28;20103;-80
2023/05/27 10:12:45;;;;;;;3.03;1.02;;;20.20;99.90;;;;;;5028909;28;20029;-80
2023/05/27 10:15:22;;;;;;;5.35;0.95;;;20.40;99.90;;;;;;5038713;28;20100;-81
2023/05/27 10:17:50;;;;;;;6.63;1.10;;;20.70;99.90;;;;;;5027340;28;20043;-81
2023/05/27 10:20:31;;;;;;;5.80;1.27;;;21.00;99.90;;;;;;5043501;28;20033;-81
2023/05/27 10:23:12;;;;;;;4.55;0.95;;;20.30;99.90;;;;;;5012086;28;20044;-81
2023/05/27 10:25:39;;;;;;;6.75;0.98;;;21.00;99.90;;;;;;5038709;28;20164;-79
2023/05/27 10:28:04;;;;;;;5.28;1.20;;;20.70;99.90;;;;;;5029190;28;20481;-79
2023/05/27 10:30:45;;;;;;;4.90;1.15;;;21.00;99.90;;;;;;5042327;28;20031;-79
2023/05/27 10:33:11;;;;;;;7.25;1.40;;;20.60;99.90;;;;;;5029280;28;20033;-79
2023/05/27 10:35:42;;;;;;;5.60;1.00;;;20.60;99.90;;;;;;5035627;28;20029;-78
2023/05/27 10:38:15;;;;;;;5.75;1.02;;;21.10;99.90;;;;;;5009177;28;20036;-79
2023/05/27 10:40:41;;;;;;;5.05;0.90;;;21.20;99.90;;;;;;5022133;28;20048;-79
2023/05/27 10:43:15;;;;;;;3.50;0.60;;;21.40;99.90;;;;;;5034762;28;20041;-79
2023/05/27 10:45:41;;;;;;;6.88;0.90;;;21.60;99.90;;;;;;5022375;28;20029;-79
2023/05/27 10:48:20;;;;;;;6.63;1.02;;;21.70;99.90;;;;;;5022015;28;20040;-79
2023/05/27 10:50:58;;;;;;;7.03;1.02;;;21.30;99.90;;;;;;5023790;28;20415;-79
2023/05/27 10:53:29;;;;;;;8.40;1.13;;;21.20;99.90;;;;;;5024473;28;20496;-80
2023/05/27 10:55:58;;;;;;;5.50;0.90;;;21.40;99.90;;;;;;5017855;28;20461;-80
2023/05/27 10:58:24;;;;;;;2.10;0.70;;;21.60;99.90;;;;;;5006911;28;20029;-80
2023/05/27 11:00:51;;;;;;;3.85;0.90;;;22.10;99.90;;;;;;5009099;28;20152;-81
2023/05/27 11:03:26;;;;;;;5.22;1.10;;;22.10;99.90;;;;;;5021213;28;20111;-81
2023/05/27 11:06:05;;;;;;;4.57;0.85;;;22.10;99.90;;;;;;5022799;28;20033;-81
2023/05/27 11:08:33;;;;;;;8.63;1.50;;;22.30;99.90;;;;;;5040272;28;20025;-80
2023/05/27 11:11:05;;;;;;;5.50;1.20;;;21.20;99.90;;;;;;5009520;28;20064;-79
2023/05/27 11:13:39;;;;;;;9.20;1.45;;;21.00;99.90;;;;;;5036872;28;20120;-80
2023/05/27 11:16:06;;;;;;;4.43;0.95;;;21.20;99.90;;;;;;5003740;28;20284;-79
2023/05/27 11:18:43;;;;;;;3.35;0.60;;;21.90;99.90;;;;;;5004566;28;20047;-80
2023/05/27 11:21:10;;;;;;;3.70;0.93;;;22.10;99.90;;;;;;5018011;28;20045;-80
2023/05/27 11:23:47;;;;;;;7.55;1.33;;;22.30;99.90;;;;;;5009622;28;20425;-80
2023/05/27 11:26:18;;;;;;;7.85;1.00;;;22.20;99.90;;;;;;5040318;28;20033;-80
2023/05/27 11:28:50;;;;;;;7.15;1.30;;;22.50;99.90;;;;;;5008808;28;20025;-79
2023/05/27 11:31:17;;;;;;;4.55;0.82;;;22.10;99.90;;;;;;5022209;28;20080;-81
2023/05/27 11:33:44;;;;;;;6.10;1.00;;;22.30;99.90;;;;;;5009686;28;20516;-80
2023/05/27 11:36:14;;;;;;;3.97;1.02;;;22.60;99.90;;;;;;5023578;28;20033;-80
2023/05/27 11:38:51;;;;;;;5.22;0.70;;;22.40;99.90;;;;;;5023531;28;20036;-80
2023/05/27 11:41:20;;;;;;;5.63;1.13;;;22.60;99.90;;;;;;5019789;28;20133;-80
2023/05/27 11:43:48;;;;;;;7.07;1.42;;;22.40;99.90;;;;;;5034252;28;20448;-80
2023/05/27 11:46:13;;;;;;;7.38;1.45;;;22.20;99.90;;;;;;5025278;28;20398;-80
2023/05/27 11:48:40;;;;;;;6.15;1.00;;;22.30;99.90;;;;;;5018283;28;20033;-81
2023/05/27 11:51:06;;;;;;;6.07;0.88;;;22.30;99.90;;;;;;5029263;28;20057;-80
2023/05/27 11:53:32;;;;;;;6.72;1.40;;;22.30;99.90;;;;;;5029427;28;20546;-80
2023/05/27 11:55:57;;;;;;;4.78;1.00;;;22.50;99.90;;;;;;5027959;28;20033;-79
2023/05/27 11:58:23;;;;;;;7.05;1.05;;;22.70;99.90;;;;;;5030073;28;20112;-80
2023/05/27 12:00:49;;;;;;;5.68;0.73;;;22.40;99.90;;;;;;5019672;28;20124;-79
2023/05/27 12:03:15;;;;;;;6.32;1.00;;;22.60;99.90;;;;;;5023270;28;20573;-79
2023/05/27 12:05:40;;;;;;;4.65;0.80;;;22.40;99.90;;;;;;5044115;28;20365;-80
2023/05/27 12:08:06;;;;;;;5.45;1.05;;;22.40;99.90;;;;;;5025583;28;20474;-80
2023/05/27 12:10:32;;;;;;;5.15;0.90;;;22.20;99.90;;;;;;5026731;28;20374;-81
2023/05/27 12:13:04;;;;;;;4.40;0.75;;;22.40;99.90;;;;;;5040348;28;20486;-79
2023/05/27 12:15:31;;;;;;;4.05;0.75;;;22.70;99.90;;;;;;5021042;28;20028;-79
2023/05/27 12:17:57;;;;;;;3.95;0.80;;;22.80;99.90;;;;;;5016813;28;20040;-81
2023/05/27 12:20:27;;;;;;;4.05;0.88;;;23.00;99.90;;;;;;5026765;28;20434;-80
2023/05/27 12:22:53;;;;;;;4.25;0.70;;;22.90;99.90;;;;;;5041118;28;20555;-80
2023/05/27 12:25:19;;;;;;;3.75;0.60;;;22.80;99.90;;;;;;5043333;28;20163;-80
2023/05/27 12:27:45;;;;;;;3.67;0.75;;;22.80;99.90;;;;;;5043577;28;20134;-80
2023/05/27 12:30:12;;;;;;;2.95;0.50;;;22.90;99.90;;;;;;5041955;28;20091;-80
2023/05/27 12:32:38;;;;;;;3.80;0.70;;;22.90;99.90;;;;;;5011841;28;20067;-81
2023/05/27 12:35:05;;;;;;;4.30;0.80;;;22.90;99.90;;;;;;5035336;28;20381;-81
2023/05/27 12:37:30;;;;;;;5.47;1.00;;;23.10;99.90;;;;;;5040702;28;20044;-80
2023/05/27 12:39:56;;;;;;;5.75;0.90;;;22.80;99.90;;;;;;5015224;28;20037;-80
2023/05/27 12:42:22;;;;;;;5.57;1.08;;;23.00;99.90;;;;;;5032804;28;20036;-81
2023/05/27 12:44:48;;;;;;;6.78;1.10;;;23.40;99.90;;;;;;5026811;28;20174;-81
2023/05/27 12:47:14;;;;;;;4.70;0.70;;;23.30;99.90;;;;;;5024239;28;20059;-81
2023/05/27 12:49:40;;;;;;;3.30;0.80;;;23.40;99.90;;;;;;5025755;28;20496;-81
2023/05/27 12:52:06;;;;;;;3.92;0.70;;;23.20;99.90;;;;;;5042769;28;20069;-80
2023/05/27 12:54:31;;;;;;;5.00;0.70;;;23.30;99.90;;;;;;5037025;28;20587;-81
2023/05/27 12:56:57;;;;;;;4.47;0.90;;;23.20;99.90;;;;;;5022331;28;20107;-81
2023/05/27 12:59:23;;;;;;;4.65;0.80;;;22.90;99.90;;;;;;5043610;28;20040;-81
2023/05/27 13:01:48;;;;;;;5.70;0.80;;;22.60;99.90;;;;;;5029623;28;20037;-80